createdAt,value
2023-01-09T00:02:03.235Z,101833.97
2023-01-09T00:04:30.741Z,101830.60
2023-01-09T00:06:57.583Z,101827.89
2023-01-09T00:09:28.211Z,101827.23
2023-01-09T00:11:56.800Z,101822.25
2023-01-09T00:14:29.374Z,101817.00
2023-01-09T00:16:56.931Z,101815.63
2023-01-09T00:19:24.079Z,101813.63
2023-01-09T00:21:51.459Z,101813.21
2023-01-09T00:24:19.093Z,101814.84
2023-01-09T00:26:46.171Z,101813.72
2023-01-09T00:29:13.307Z,101814.31
2023-01-09T00:31:40.543Z,101804.61
2023-01-09T00:34:10.053Z,101809.60
2023-01-09T00:36:37.206Z,101807.95
2023-01-09T00:39:06.213Z,101803.73
2023-01-09T00:41:51.158Z,101805.12
2023-01-09T00:44:25.638Z,101801.63
2023-01-09T00:46:55.371Z,101798.05
2023-01-09T00:49:22.645Z,101794.27
2023-01-09T00:51:49.895Z,101791.30
2023-01-09T00:54:19.917Z,101787.03
2023-01-09T00:56:46.960Z,101780.71
2023-01-09T00:59:14.539Z,101782.54
2023-01-09T01:01:42.004Z,101777.79
2023-01-09T01:04:28.172Z,101778.71
2023-01-09T01:07:14.063Z,101777.38
2023-01-09T01:09:43.366Z,101774.23
2023-01-09T01:12:10.611Z,101771.94
2023-01-09T01:14:37.984Z,101767.08
2023-01-09T01:17:05.630Z,101760.08
2023-01-09T01:19:34.110Z,101760.73
2023-01-09T01:22:01.261Z,101754.48
2023-01-09T01:24:28.718Z,101747.66
2023-01-09T01:26:55.764Z,101749.21
2023-01-09T01:29:22.923Z,101746.08
2023-01-09T01:31:52.742Z,101740.48
2023-01-09T01:34:19.672Z,101737.05
2023-01-09T01:36:51.939Z,101734.98
2023-01-09T01:39:18.885Z,101737.54
2023-01-09T01:41:46.136Z,101734.87
2023-01-09T01:45:01.519Z,101733.99
2023-01-09T01:47:49.055Z,101731.23
2023-01-09T01:50:21.929Z,101728.52
2023-01-09T01:52:55.184Z,101732.48
2023-01-09T01:55:22.267Z,101735.45
2023-01-09T01:57:50.343Z,101725.02
2023-01-09T02:00:18.824Z,101725.36
2023-01-09T02:02:50.921Z,101720.44
2023-01-09T02:05:18.239Z,101713.36
2023-01-09T02:07:45.284Z,101712.67
2023-01-09T02:10:12.358Z,101703.79
2023-01-09T02:12:39.278Z,101703.23
2023-01-09T02:15:11.542Z,101702.94
2023-01-09T02:17:46.584Z,101699.84
2023-01-09T02:20:37.797Z,101699.17
2023-01-09T02:23:39.892Z,101698.16
2023-01-09T02:26:40.399Z,101694.92
2023-01-09T02:29:10.312Z,101687.58
2023-01-09T02:31:47.771Z,101689.08
2023-01-09T02:34:16.797Z,101687.65
2023-01-09T02:36:51.345Z,101689.70
2023-01-09T02:39:40.894Z,101686.08
2023-01-09T02:42:17.263Z,101685.80
2023-01-09T02:44:44.343Z,101675.49
2023-01-09T02:47:17.415Z,101674.52
2023-01-09T02:50:02.065Z,101682.48
2023-01-09T02:52:52.346Z,101674.79
2023-01-09T02:55:50.849Z,101672.59
2023-01-09T02:58:35.194Z,101678.29
2023-01-09T03:01:24.246Z,101680.33
2023-01-09T03:03:57.543Z,101683.43
2023-01-09T03:06:36.159Z,101689.94
2023-01-09T03:09:17.348Z,101688.66
2023-01-09T03:11:53.659Z,101679.96
2023-01-09T03:14:21.784Z,101677.70
2023-01-09T03:16:51.695Z,101673.09
2023-01-09T03:19:20.480Z,101677.95
2023-01-09T03:21:47.647Z,101675.16
2023-01-09T03:24:16.227Z,101676.27
2023-01-09T03:26:48.684Z,101676.48
2023-01-09T03:29:15.939Z,101676.44
2023-01-09T03:31:48.232Z,101674.33
2023-01-09T03:34:15.374Z,101670.91
2023-01-09T03:36:42.411Z,101666.81
2023-01-09T03:39:11.400Z,101674.00
2023-01-09T03:41:43.672Z,101678.11
2023-01-09T03:44:10.619Z,101672.48
2023-01-09T03:46:40.935Z,101676.33
2023-01-09T03:49:13.000Z,101671.95
2023-01-09T03:51:40.000Z,101669.52
2023-01-09T03:54:07.004Z,101672.37
2023-01-09T03:56:34.249Z,101675.63
2023-01-09T03:59:01.289Z,101680.52
2023-01-09T04:01:37.607Z,101685.52
2023-01-09T04:04:06.901Z,101684.79
2023-01-09T04:06:34.432Z,101688.17
2023-01-09T04:09:01.475Z,101685.48
2023-01-09T04:11:30.880Z,101685.77
2023-01-09T04:13:58.023Z,101687.95
2023-01-09T04:16:25.213Z,101689.07
2023-01-09T04:18:52.521Z,101689.40
2023-01-09T04:21:19.673Z,101691.79
2023-01-09T04:23:46.831Z,101694.40
2023-01-09T04:26:17.456Z,101701.48
2023-01-09T04:28:44.701Z,101695.15
2023-01-09T04:31:12.039Z,101704.66
2023-01-09T04:33:40.027Z,101705.91
2023-01-09T04:36:07.999Z,101710.30
2023-01-09T04:38:40.378Z,101712.38
2023-01-09T04:41:09.767Z,101714.23
2023-01-09T04:43:36.823Z,101710.63
2023-01-09T04:46:04.437Z,101711.89
2023-01-09T04:48:31.630Z,101705.30
2023-01-09T04:50:58.574Z,101701.48
2023-01-09T04:53:26.152Z,101699.30
2023-01-09T04:55:53.084Z,101688.70
2023-01-09T04:58:20.843Z,101680.13
2023-01-09T05:00:53.070Z,101681.75
2023-01-09T05:03:20.360Z,101682.05
2023-01-09T05:05:56.832Z,101681.02
2023-01-09T05:08:23.977Z,101679.23
2023-01-09T05:10:50.926Z,101683.98
2023-01-09T05:13:23.396Z,101684.95
2023-01-09T05:15:50.448Z,101694.66
2023-01-09T05:18:17.801Z,101688.19
2023-01-09T05:20:45.051Z,101689.30
2023-01-09T05:23:12.211Z,101688.09
2023-01-09T05:25:39.251Z,101685.37
2023-01-09T05:28:07.221Z,101687.14
2023-01-09T05:30:34.263Z,101685.14
2023-01-09T05:33:01.310Z,101683.48
2023-01-09T05:35:28.567Z,101686.98
2023-01-09T05:37:56.431Z,101684.40
2023-01-09T05:40:29.097Z,101686.73
2023-01-09T05:43:01.490Z,101688.08
2023-01-09T05:45:29.076Z,101695.52
2023-01-09T05:47:57.215Z,101699.92
2023-01-09T05:50:26.723Z,101703.77
2023-01-09T05:52:53.869Z,101698.95
2023-01-09T05:55:20.812Z,101699.02
2023-01-09T05:57:49.716Z,101696.33
2023-01-09T06:00:19.629Z,101693.41
2023-01-09T06:02:46.815Z,101692.00
2023-01-09T06:05:14.124Z,101685.23
2023-01-09T06:07:41.578Z,101697.35
2023-01-09T06:10:10.959Z,101698.27
2023-01-09T06:12:38.341Z,101689.67
2023-01-09T06:15:08.661Z,101677.64
2023-01-09T06:17:37.365Z,101671.95
2023-01-09T06:20:05.229Z,101679.44
2023-01-09T06:22:32.775Z,101688.45
2023-01-09T06:24:59.827Z,101692.52
2023-01-09T06:27:27.589Z,101698.45
2023-01-09T06:29:54.467Z,101702.96
2023-01-09T06:32:21.372Z,101698.01
2023-01-09T06:34:51.112Z,101692.80
2023-01-09T06:37:18.134Z,101684.95
2023-01-09T06:39:45.686Z,101679.98
2023-01-09T06:42:12.731Z,101681.61
2023-01-09T06:44:39.825Z,101681.15
2023-01-09T06:47:06.929Z,101681.80
2023-01-09T06:49:34.270Z,101677.41
2023-01-09T06:52:05.146Z,101674.10
2023-01-09T06:54:33.605Z,101679.80
2023-01-09T06:57:00.684Z,101680.70
2023-01-09T06:59:27.697Z,101681.23
2023-01-09T07:01:55.713Z,101689.08
2023-01-09T07:04:25.809Z,101685.20
2023-01-09T07:06:53.036Z,101691.52
2023-01-09T07:09:21.113Z,101693.71
2023-01-09T07:11:48.570Z,101694.95
2023-01-09T07:14:15.717Z,101688.68
2023-01-09T07:16:43.067Z,101687.91
2023-01-09T07:19:10.939Z,101688.98
2023-01-09T07:21:38.095Z,101691.08
2023-01-09T07:24:05.556Z,101683.45
2023-01-09T07:26:34.532Z,101684.81
2023-01-09T07:29:01.514Z,101685.73
2023-01-09T07:31:29.214Z,101686.80
2023-01-09T07:33:56.289Z,101678.94
2023-01-09T07:36:26.247Z,101680.58
2023-01-09T07:38:53.456Z,101676.20
2023-01-09T07:41:20.604Z,101676.27
2023-01-09T07:43:50.582Z,101673.48
2023-01-09T07:46:17.544Z,101676.67
2023-01-09T07:48:44.519Z,101678.05
2023-01-09T07:51:14.168Z,101672.13
2023-01-09T07:53:41.104Z,101670.39
2023-01-09T07:56:07.990Z,101675.22
2023-01-09T07:58:35.083Z,101678.83
2023-01-09T08:01:04.601Z,101678.31
2023-01-09T08:03:33.158Z,101677.91
2023-01-09T08:06:00.377Z,101672.29
2023-01-09T08:08:27.658Z,101666.39
2023-01-09T08:10:54.800Z,101665.02
2023-01-09T08:13:21.975Z,101668.23
2023-01-09T08:15:49.088Z,101669.23
2023-01-09T08:18:16.049Z,101663.24
2023-01-09T08:20:43.400Z,101669.21
2023-01-09T08:23:10.582Z,101663.05
2023-01-09T08:25:37.605Z,101662.25
2023-01-09T08:28:05.870Z,101657.59
2023-01-09T08:30:34.766Z,101662.25
2023-01-09T08:33:02.017Z,101652.75
2023-01-09T08:35:29.367Z,101650.34
2023-01-09T08:37:56.412Z,101644.09
2023-01-09T08:40:25.874Z,101648.45
2023-01-09T08:43:12.491Z,101644.95
2023-01-09T08:45:58.006Z,101639.79
2023-01-09T08:48:25.359Z,101637.45
2023-01-09T08:50:53.839Z,101634.11
2023-01-09T08:53:21.507Z,101634.00
2023-01-09T08:55:49.476Z,101637.77
2023-01-09T08:58:16.628Z,101629.85
2023-01-09T09:00:46.025Z,101626.63
2023-01-09T09:03:13.284Z,101622.44
2023-01-09T09:05:40.230Z,101616.48
2023-01-09T09:08:07.269Z,101608.90
2023-01-09T09:10:34.421Z,101607.30
2023-01-09T09:13:01.870Z,101599.83
2023-01-09T09:15:29.440Z,101593.71
2023-01-09T09:17:58.326Z,101590.35
2023-01-09T09:20:27.728Z,101585.94
2023-01-09T09:22:58.174Z,101587.56
2023-01-09T09:25:26.130Z,101590.27
2023-01-09T09:27:55.963Z,101586.77
2023-01-09T09:30:23.859Z,101579.98
2023-01-09T09:32:52.874Z,101570.40
2023-01-09T09:35:20.928Z,101566.07
2023-01-09T09:37:58.585Z,101565.36
2023-01-09T09:40:38.205Z,101563.13
2023-01-09T09:44:00.864Z,101561.36
2023-01-09T09:46:47.592Z,101547.33
2023-01-09T09:49:19.481Z,101551.94
2023-01-09T09:51:50.464Z,101547.02
2023-01-09T09:54:24.720Z,101544.05
2023-01-09T09:56:54.081Z,101540.92
2023-01-09T09:59:22.568Z,101540.66
2023-01-09T10:01:58.858Z,101534.88
2023-01-09T10:04:27.624Z,101530.17
2023-01-09T10:07:00.159Z,101530.02
2023-01-09T10:09:45.433Z,101527.50
2023-01-09T10:12:27.261Z,101524.02
2023-01-09T10:14:59.157Z,101518.14
2023-01-09T10:17:28.984Z,101513.88
2023-01-09T10:20:08.508Z,101510.37
2023-01-09T10:22:51.004Z,101503.86
2023-01-09T10:25:40.219Z,101502.02
2023-01-09T10:28:26.664Z,101501.23
2023-01-09T10:31:22.798Z,101498.13
2023-01-09T10:33:55.713Z,101495.33
2023-01-09T10:36:38.794Z,101489.95
2023-01-09T10:39:08.212Z,101481.94
2023-01-09T10:41:50.471Z,101479.25
2023-01-09T10:44:24.982Z,101478.10
2023-01-09T10:46:53.902Z,101473.75
2023-01-09T10:49:21.726Z,101473.37
2023-01-09T10:52:17.760Z,101472.92
2023-01-09T10:54:52.303Z,101462.23
2023-01-09T10:57:24.154Z,101457.13
2023-01-09T10:59:53.552Z,101458.11
2023-01-09T11:02:31.490Z,101464.29
2023-01-09T11:04:58.479Z,101467.64
2023-01-09T11:07:30.569Z,101463.98
2023-01-09T11:10:03.058Z,101458.45
2023-01-09T11:12:32.391Z,101457.44
2023-01-09T11:15:20.649Z,101460.99
2023-01-09T11:17:48.477Z,101465.69
2023-01-09T11:20:19.966Z,101470.16
2023-01-09T11:22:50.877Z,101468.50
2023-01-09T11:25:19.220Z,101470.56
2023-01-09T11:28:01.652Z,101469.75
2023-01-09T11:30:30.488Z,101478.88
2023-01-09T11:32:58.258Z,101488.33
2023-01-09T11:35:34.960Z,101479.61
2023-01-09T11:38:03.277Z,101469.64
2023-01-09T11:40:48.913Z,101456.20
2023-01-09T11:43:21.155Z,101448.63
2023-01-09T11:46:01.147Z,101445.54
2023-01-09T11:48:39.229Z,101447.88
2023-01-09T11:51:21.728Z,101452.42
2023-01-09T11:54:14.747Z,101453.48
2023-01-09T11:56:41.915Z,101456.77
2023-01-09T11:59:17.365Z,101459.30
2023-01-09T12:02:15.704Z,101459.51
2023-01-09T12:04:52.345Z,101466.80
2023-01-09T12:07:39.576Z,101467.95
2023-01-09T12:10:10.055Z,101471.38
2023-01-09T12:12:40.260Z,101469.61
2023-01-09T12:15:14.368Z,101462.90
2023-01-09T12:18:08.144Z,101464.05
2023-01-09T12:20:47.991Z,101472.80
2023-01-09T12:23:47.298Z,101476.26
2023-01-09T12:26:25.305Z,101468.30
2023-01-09T12:29:19.630Z,101473.84
2023-01-09T12:31:52.337Z,101476.00
2023-01-09T12:34:51.079Z,101466.92
2023-01-09T12:37:49.292Z,101471.27
2023-01-09T12:40:16.460Z,101472.55
2023-01-09T12:43:09.859Z,101473.30
2023-01-09T12:45:47.194Z,101466.30
2023-01-09T12:48:41.828Z,101471.34
2023-01-09T12:51:44.687Z,101480.26
2023-01-09T12:54:32.601Z,101480.58
2023-01-09T12:57:06.275Z,101485.91
2023-01-09T12:59:41.000Z,101486.61
2023-01-09T13:02:08.237Z,101487.30
2023-01-09T13:04:41.600Z,101478.02
2023-01-09T13:07:17.134Z,101471.17
2023-01-09T13:09:55.532Z,101467.30
2023-01-09T13:12:22.747Z,101469.21
2023-01-09T13:15:00.453Z,101465.17
2023-01-09T13:17:29.794Z,101462.77
2023-01-09T13:19:56.984Z,101468.20
2023-01-09T13:22:25.122Z,101469.75
2023-01-09T13:25:14.614Z,101464.52
2023-01-09T13:27:42.005Z,101461.17
2023-01-09T13:30:34.473Z,101464.65
2023-01-09T13:33:23.572Z,101474.59
2023-01-09T13:35:51.063Z,101478.73
2023-01-09T13:38:22.574Z,101479.27
2023-01-09T13:41:28.895Z,101478.52
2023-01-09T13:43:59.252Z,101483.07
2023-01-09T13:46:53.367Z,101482.90
2023-01-09T13:49:52.671Z,101477.86
2023-01-09T13:52:25.681Z,101480.20
2023-01-09T13:54:53.103Z,101489.31
2023-01-09T13:57:20.341Z,101490.84
2023-01-09T13:59:50.119Z,101493.38
2023-01-09T14:02:36.137Z,101499.25
2023-01-09T14:05:06.672Z,101497.69
2023-01-09T14:07:35.406Z,101496.28
2023-01-09T14:10:04.809Z,101496.02
2023-01-09T14:12:38.062Z,101499.17
2023-01-09T14:15:05.664Z,101505.91
2023-01-09T14:17:37.012Z,101506.62
2023-01-09T14:20:07.107Z,101512.63
2023-01-09T14:22:45.682Z,101512.90
2023-01-09T14:25:28.064Z,101520.66
2023-01-09T14:27:55.822Z,101518.16
2023-01-09T14:30:25.725Z,101520.02
2023-01-09T14:33:27.306Z,101512.72
2023-01-09T14:35:56.280Z,101511.95
2023-01-09T14:38:50.981Z,101507.61
2023-01-09T14:41:47.322Z,101503.52
2023-01-09T14:44:27.671Z,101500.68
2023-01-09T14:46:55.441Z,101500.27
2023-01-09T14:49:38.341Z,101493.27
2023-01-09T14:52:30.016Z,101496.23
2023-01-09T14:54:59.088Z,101501.45
2023-01-09T14:57:33.704Z,101501.23
2023-01-09T15:00:16.519Z,101503.21
2023-01-09T15:02:44.587Z,101507.33
2023-01-09T15:05:23.236Z,101508.54
2023-01-09T15:07:58.969Z,101514.60
2023-01-09T15:10:34.140Z,101520.89
2023-01-09T15:13:02.784Z,101515.43
2023-01-09T15:15:32.505Z,101509.91
2023-01-09T15:18:03.937Z,101500.60
2023-01-09T15:20:31.811Z,101497.79
2023-01-09T15:23:00.395Z,101500.76
2023-01-09T15:25:44.613Z,101503.30
2023-01-09T15:28:30.264Z,101509.60
2023-01-09T15:31:10.795Z,101511.53
2023-01-09T15:33:38.923Z,101512.86
2023-01-09T15:36:25.464Z,101514.89
2023-01-09T15:38:52.820Z,101514.94
2023-01-09T15:41:48.234Z,101517.54
2023-01-09T15:44:20.398Z,101513.73
2023-01-09T15:46:49.587Z,101514.06
2023-01-09T15:49:17.050Z,101514.19
2023-01-09T15:51:45.748Z,101519.02
2023-01-09T15:54:29.886Z,101521.62
2023-01-09T15:57:21.004Z,101512.20
2023-01-09T15:59:48.047Z,101512.09
2023-01-09T16:02:36.291Z,101519.24
2023-01-09T16:05:14.554Z,101522.30
2023-01-09T16:07:48.260Z,101525.36
2023-01-09T16:10:22.623Z,101524.15
2023-01-09T16:12:52.178Z,101527.09
2023-01-09T16:15:19.173Z,101529.75
2023-01-09T16:18:31.284Z,101527.29
2023-01-09T16:21:05.454Z,101528.75
2023-01-09T16:23:40.524Z,101523.84
2023-01-09T16:26:13.643Z,101526.23
2023-01-09T16:28:42.204Z,101521.86
2023-01-09T16:31:23.288Z,101526.30
2023-01-09T16:34:05.899Z,101527.43
2023-01-09T16:36:39.005Z,101527.88
2023-01-09T16:39:10.533Z,101533.20
2023-01-09T16:41:57.439Z,101531.58
2023-01-09T16:44:27.361Z,101534.91
2023-01-09T16:46:54.713Z,101534.34
2023-01-09T16:49:23.733Z,101534.41
2023-01-09T16:51:51.468Z,101536.71
2023-01-09T16:54:20.188Z,101532.98
2023-01-09T16:56:48.755Z,101536.05
2023-01-09T16:59:20.111Z,101535.11
2023-01-09T17:01:47.745Z,101538.34
2023-01-09T17:04:16.748Z,101540.84
2023-01-09T17:06:43.887Z,101541.96
2023-01-09T17:09:11.971Z,101549.02
2023-01-09T17:11:39.621Z,101547.71
2023-01-09T17:14:10.849Z,101547.27
2023-01-09T17:16:41.194Z,101548.17
2023-01-09T17:19:26.479Z,101548.95
2023-01-09T17:21:53.819Z,101548.09
2023-01-09T17:24:39.668Z,101548.31
2023-01-09T17:27:32.569Z,101547.27
2023-01-09T17:30:05.571Z,101543.23
2023-01-09T17:32:41.399Z,101539.00
2023-01-09T17:35:12.546Z,101537.02
2023-01-09T17:37:39.701Z,101532.45
2023-01-09T17:40:23.648Z,101532.84
2023-01-09T17:42:51.096Z,101536.33
2023-01-09T17:45:18.665Z,101530.94
2023-01-09T17:47:45.733Z,101526.58
2023-01-09T17:50:19.212Z,101528.05
2023-01-09T17:52:47.884Z,101526.48
2023-01-09T17:55:14.965Z,101524.39
2023-01-09T17:57:42.593Z,101518.80
2023-01-09T18:00:27.367Z,101518.89
2023-01-09T18:02:55.344Z,101517.56
2023-01-09T18:05:23.404Z,101518.36
2023-01-09T18:07:50.550Z,101516.27
2023-01-09T18:10:19.452Z,101518.89
2023-01-09T18:12:48.745Z,101518.80
2023-01-09T18:15:16.499Z,101519.05
2023-01-09T18:17:44.264Z,101516.08
2023-01-09T18:20:13.772Z,101512.36
2023-01-09T18:22:41.025Z,101515.68
2023-01-09T18:25:13.098Z,101510.23
2023-01-09T18:27:40.242Z,101509.84
2023-01-09T18:30:13.341Z,101507.24
2023-01-09T18:32:41.047Z,101507.55
2023-01-09T18:35:10.718Z,101509.34
2023-01-09T18:37:37.811Z,101512.48
2023-01-09T18:40:08.374Z,101506.29
2023-01-09T18:42:40.373Z,101501.97
2023-01-09T18:45:08.031Z,101501.57
2023-01-09T18:47:35.049Z,101502.75
2023-01-09T18:50:03.019Z,101500.16
2023-01-09T18:52:30.585Z,101497.55
2023-01-09T18:54:57.493Z,101498.75
2023-01-09T18:57:24.535Z,101500.79
2023-01-09T18:59:51.684Z,101495.63
2023-01-09T19:02:22.969Z,101489.34
2023-01-09T19:04:51.140Z,101486.10
2023-01-09T19:07:18.295Z,101478.15
2023-01-09T19:09:45.852Z,101477.21
2023-01-09T19:12:13.006Z,101479.64
2023-01-09T19:14:42.193Z,101477.64
2023-01-09T19:17:09.454Z,101471.27
2023-01-09T19:19:36.703Z,101466.31
2023-01-09T19:22:03.846Z,101463.95
2023-01-09T19:24:32.535Z,101458.16
2023-01-09T19:27:05.004Z,101449.80
2023-01-09T19:29:34.670Z,101448.60
2023-01-09T19:32:02.693Z,101445.48
2023-01-09T19:34:31.063Z,101443.02
2023-01-09T19:36:58.496Z,101446.51
2023-01-09T19:39:26.909Z,101450.14
2023-01-09T19:41:54.055Z,101441.67
2023-01-09T19:44:21.143Z,101437.40
2023-01-09T19:46:48.460Z,101439.55
2023-01-09T19:49:15.814Z,101430.74
2023-01-09T19:51:42.864Z,101426.86
2023-01-09T19:54:10.412Z,101432.91
2023-01-09T19:56:43.500Z,101438.27
2023-01-09T19:59:11.468Z,101442.59
2023-01-09T20:01:41.199Z,101448.88
2023-01-09T20:04:13.128Z,101450.48
2023-01-09T20:06:48.073Z,101448.47
2023-01-09T20:09:17.185Z,101449.17
2023-01-09T20:11:44.435Z,101453.05
2023-01-09T20:14:15.176Z,101452.90
2023-01-09T20:16:42.638Z,101452.55
2023-01-09T20:19:11.301Z,101450.61
2023-01-09T20:21:38.452Z,101458.44
2023-01-09T20:24:08.190Z,101465.36
2023-01-09T20:26:35.928Z,101466.85
2023-01-09T20:29:05.115Z,101467.81
2023-01-09T20:31:32.614Z,101470.79
2023-01-09T20:33:59.941Z,101474.12
2023-01-09T20:36:29.609Z,101477.75
2023-01-09T20:38:57.814Z,101479.60
2023-01-09T20:41:28.959Z,101478.50
2023-01-09T20:43:59.485Z,101481.55
2023-01-09T20:46:31.452Z,101478.09
2023-01-09T20:49:04.127Z,101473.67
2023-01-09T20:51:41.036Z,101470.83
2023-01-09T20:54:08.161Z,101477.55
2023-01-09T20:56:36.546Z,101474.88
2023-01-09T20:59:05.836Z,101476.73
2023-01-09T21:01:34.414Z,101477.52
2023-01-09T21:04:08.296Z,101478.23
2023-01-09T21:06:35.834Z,101485.89
2023-01-09T21:09:03.801Z,101485.22
2023-01-09T21:11:33.563Z,101477.89
2023-01-09T21:14:05.633Z,101491.73
2023-01-09T21:16:35.768Z,101491.44
2023-01-09T21:19:02.803Z,101490.20
2023-01-09T21:21:30.557Z,101483.77
2023-01-09T21:24:00.435Z,101494.81
2023-01-09T21:26:28.543Z,101494.68
2023-01-09T21:28:56.411Z,101497.93
2023-01-09T21:31:29.208Z,101499.63
2023-01-09T21:33:56.544Z,101505.39
2023-01-09T21:36:29.125Z,101498.34
2023-01-09T21:38:59.245Z,101492.30
2023-01-09T21:41:45.039Z,101493.07
2023-01-09T21:44:36.346Z,101496.23
2023-01-09T21:47:03.508Z,101492.84
2023-01-09T21:49:34.432Z,101490.67
2023-01-09T21:52:03.764Z,101488.83
2023-01-09T21:54:31.091Z,101490.39
2023-01-09T21:56:58.794Z,101488.45
2023-01-09T21:59:29.109Z,101491.66
2023-01-09T22:01:56.753Z,101492.39
2023-01-09T22:04:28.043Z,101489.48
2023-01-09T22:06:55.743Z,101489.05
2023-01-09T22:09:22.799Z,101494.83
2023-01-09T22:11:49.637Z,101490.64
2023-01-09T22:14:18.012Z,101484.44
2023-01-09T22:16:45.217Z,101488.09
2023-01-09T22:19:17.638Z,101484.25
2023-01-09T22:21:45.509Z,101480.44
2023-01-09T22:24:13.573Z,101483.39
2023-01-09T22:26:40.927Z,101485.75
2023-01-09T22:29:13.323Z,101476.99
2023-01-09T22:31:40.448Z,101470.44
2023-01-09T22:34:11.258Z,101464.85
2023-01-09T22:36:38.685Z,101464.45
2023-01-09T22:39:06.302Z,101457.73
2023-01-09T22:41:33.357Z,101459.47
2023-01-09T22:44:00.294Z,101465.63
2023-01-09T22:46:27.341Z,101462.94
2023-01-09T22:48:54.804Z,101458.14
2023-01-09T22:51:22.496Z,101459.30
2023-01-09T22:53:50.121Z,101451.52
2023-01-09T22:56:20.686Z,101449.75
2023-01-09T22:58:51.588Z,101443.98
2023-01-09T23:01:19.270Z,101448.14
2023-01-09T23:03:46.400Z,101446.52
2023-01-09T23:06:20.119Z,101448.33
2023-01-09T23:08:49.839Z,101455.04
2023-01-09T23:11:43.583Z,101455.72
2023-01-09T23:14:10.760Z,101451.65
2023-01-09T23:16:40.281Z,101453.78
2023-01-09T23:19:09.440Z,101450.59
2023-01-09T23:21:36.693Z,101452.30
2023-01-09T23:24:06.464Z,101450.64
2023-01-09T23:26:34.181Z,101449.38
2023-01-09T23:29:01.438Z,101446.08
2023-01-09T23:31:28.923Z,101448.77
2023-01-09T23:34:01.454Z,101454.39
2023-01-09T23:36:28.603Z,101459.27
2023-01-09T23:39:02.354Z,101463.42
2023-01-09T23:41:48.503Z,101461.91
2023-01-09T23:44:18.016Z,101463.67
2023-01-09T23:46:47.522Z,101466.54
2023-01-09T23:49:14.865Z,101462.48
2023-01-09T23:51:42.013Z,101459.02
2023-01-09T23:54:09.267Z,101461.20
2023-01-09T23:56:38.464Z,101463.54
2023-01-09T23:59:11.772Z,101468.98
